sensor_id;sensor_type;location;lat;lon;timestamp;P1;durP1;ratioP1;P2;durP2;ratioP2
57321;SDS011;43159;51.006;18.224;2022-11-15T00:04:52;38.20;;;14.80;;
57321;SDS011;43159;51.006;18.224;2022-11-15T00:14:35;37.90;;;17.90;;
57321;SDS011;43159;51.006;18.224;2022-11-15T00:24:17;49.40;;;18.50;;
57321;SDS011;43159;51.006;18.224;2022-11-15T00:33:59;40.00;;;18.20;;
57321;SDS011;43159;51.006;18.224;2022-11-15T00:43:41;31.90;;;12.70;;
57321;SDS011;43159;51.006;18.224;2022-11-15T00:53:26;34.40;;;17.20;;
57321;SDS011;43159;51.006;18.224;2022-11-15T01:03:08;38.80;;;17.00;;
57321;SDS011;43159;51.006;18.224;2022-11-15T01:12:52;26.50;;;14.30;;
57321;SDS011;43159;51.006;18.224;2022-11-15T01:22:34;33.30;;;14.50;;
57321;SDS011;43159;51.006;18.224;2022-11-15T01:32:16;38.50;;;14.50;;
57321;SDS011;43159;51.006;18.224;2022-11-15T01:41:58;34.60;;;16.20;;
57321;SDS011;43159;51.006;18.224;2022-11-15T01:51:47;25.80;;;13.20;;
57321;SDS011;43159;51.006;18.224;2022-11-15T02:01:53;29.70;;;12.60;;
57321;SDS011;43159;51.006;18.224;2022-11-15T02:11:37;34.10;;;16.50;;
57321;SDS011;43159;51.006;18.224;2022-11-15T02:40:23;39.20;;;20.90;;
57321;SDS011;43159;51.006;18.224;2022-11-15T02:50:35;11.20;;;5.20;;
57321;SDS011;43159;51.006;18.224;2022-11-15T03:00:46;29.30;;;12.30;;
57321;SDS011;43159;51.006;18.224;2022-11-15T03:11:19;27.30;;;11.90;;
57321;SDS011;43159;51.006;18.224;2022-11-15T03:21:37;30.20;;;13.60;;
57321;SDS011;43159;51.006;18.224;2022-11-15T03:31:23;26.70;;;12.90;;
57321;SDS011;43159;51.006;18.224;2022-11-15T03:48:50;38.70;;;15.00;;
57321;SDS011;43159;51.006;18.224;2022-11-15T04:05:51;29.10;;;14.50;;
57321;SDS011;43159;51.006;18.224;2022-11-15T04:15:33;33.80;;;14.40;;
57321;SDS011;43159;51.006;18.224;2022-11-15T04:26:01;30.30;;;12.80;;
57321;SDS011;43159;51.006;18.224;2022-11-15T04:35:50;36.80;;;15.30;;
57321;SDS011;43159;51.006;18.224;2022-11-15T04:48:17;34.60;;;18.30;;
57321;SDS011;43159;51.006;18.224;2022-11-15T04:50:42;32.30;;;17.60;;
57321;SDS011;43159;51.006;18.224;2022-11-15T04:53:08;33.00;;;18.30;;
57321;SDS011;43159;51.006;18.224;2022-11-15T04:55:33;33.30;;;17.70;;
57321;SDS011;43159;51.006;18.224;2022-11-15T04:57:59;33.40;;;18.00;;
57321;SDS011;43159;51.006;18.224;2022-11-15T05:00:26;31.70;;;17.50;;
57321;SDS011;43159;51.006;18.224;2022-11-15T05:02:52;33.60;;;17.30;;
57321;SDS011;43159;51.006;18.224;2022-11-15T05:05:37;34.00;;;17.30;;
57321;SDS011;43159;51.006;18.224;2022-11-15T05:08:03;31.30;;;16.60;;
57321;SDS011;43159;51.006;18.224;2022-11-15T05:10:28;32.80;;;17.70;;
57321;SDS011;43159;51.006;18.224;2022-11-15T05:12:54;31.90;;;17.70;;
57321;SDS011;43159;51.006;18.224;2022-11-15T05:15:19;35.00;;;19.60;;
57321;SDS011;43159;51.006;18.224;2022-11-15T05:17:45;33.00;;;17.80;;
57321;SDS011;43159;51.006;18.224;2022-11-15T05:20:11;33.00;;;18.70;;
57321;SDS011;43159;51.006;18.224;2022-11-15T05:22:37;31.90;;;17.30;;
57321;SDS011;43159;51.006;18.224;2022-11-15T05:25:03;30.40;;;17.20;;
57321;SDS011;43159;51.006;18.224;2022-11-15T05:27:29;30.50;;;17.90;;
57321;SDS011;43159;51.006;18.224;2022-11-15T05:29:55;29.70;;;16.50;;
57321;SDS011;43159;51.006;18.224;2022-11-15T05:32:20;31.20;;;17.00;;
57321;SDS011;43159;51.006;18.224;2022-11-15T05:34:45;32.10;;;18.20;;
57321;SDS011;43159;51.006;18.224;2022-11-15T05:37:13;32.40;;;18.50;;
57321;SDS011;43159;51.006;18.224;2022-11-15T05:39:39;35.10;;;20.40;;
57321;SDS011;43159;51.006;18.224;2022-11-15T06:03:58;22.50;;;14.10;;
57321;SDS011;43159;51.006;18.224;2022-11-15T06:13:39;24.10;;;12.40;;
57321;SDS011;43159;51.006;18.224;2022-11-15T06:23:25;40.40;;;19.20;;
57321;SDS011;43159;51.006;18.224;2022-11-15T06:33:07;27.90;;;15.00;;
57321;SDS011;43159;51.006;18.224;2022-11-15T08:37:12;28.50;;;15.60;;
57321;SDS011;43159;51.006;18.224;2022-11-15T08:44:29;33.70;;;20.40;;
57321;SDS011;43159;51.006;18.224;2022-11-15T08:46:55;33.90;;;21.10;;
57321;SDS011;43159;51.006;18.224;2022-11-15T08:49:20;33.30;;;20.90;;
57321;SDS011;43159;51.006;18.224;2022-11-15T08:51:46;33.00;;;20.60;;
57321;SDS011;43159;51.006;18.224;2022-11-15T08:54:11;34.60;;;21.70;;
57321;SDS011;43159;51.006;18.224;2022-11-15T08:56:37;33.40;;;22.00;;
57321;SDS011;43159;51.006;18.224;2022-11-15T08:59:02;33.60;;;21.90;;
57321;SDS011;43159;51.006;18.224;2022-11-15T09:01:28;34.80;;;22.10;;
57321;SDS011;43159;51.006;18.224;2022-11-15T09:03:53;32.40;;;21.20;;
57321;SDS011;43159;51.006;18.224;2022-11-15T09:06:20;34.00;;;21.80;;
57321;SDS011;43159;51.006;18.224;2022-11-15T09:08:45;34.50;;;22.10;;
57321;SDS011;43159;51.006;18.224;2022-11-15T09:11:11;31.60;;;21.40;;
57321;SDS011;43159;51.006;18.224;2022-11-15T09:13:37;35.60;;;21.20;;
57321;SDS011;43159;51.006;18.224;2022-11-15T09:16:03;33.50;;;21.40;;
57321;SDS011;43159;51.006;18.224;2022-11-15T09:18:29;35.30;;;21.40;;
57321;SDS011;43159;51.006;18.224;2022-11-15T09:20:58;32.70;;;20.60;;
57321;SDS011;43159;51.006;18.224;2022-11-15T09:23:25;29.50;;;19.00;;
57321;SDS011;43159;51.006;18.224;2022-11-15T09:25:51;31.50;;;19.20;;
57321;SDS011;43159;51.006;18.224;2022-11-15T09:28:17;30.20;;;19.20;;
57321;SDS011;43159;51.006;18.224;2022-11-15T09:30:43;28.90;;;18.60;;
57321;SDS011;43159;51.006;18.224;2022-11-15T09:33:09;30.10;;;19.20;;
57321;SDS011;43159;51.006;18.224;2022-11-15T09:35:36;31.40;;;19.70;;
57321;SDS011;43159;51.006;18.224;2022-11-15T09:38:02;30.40;;;19.30;;
57321;SDS011;43159;51.006;18.224;2022-11-15T09:40:29;29.10;;;19.40;;
57321;SDS011;43159;51.006;18.224;2022-11-15T09:43:02;26.70;;;18.30;;
57321;SDS011;43159;51.006;18.224;2022-11-15T09:45:46;26.90;;;18.00;;
57321;SDS011;43159;51.006;18.224;2022-11-15T09:48:24;30.20;;;18.30;;
57321;SDS011;43159;51.006;18.224;2022-11-15T09:50:52;27.10;;;17.30;;
57321;SDS011;43159;51.006;18.224;2022-11-15T09:53:29;27.50;;;17.80;;
57321;SDS011;43159;51.006;18.224;2022-11-15T09:56:03;26.60;;;17.60;;
57321;SDS011;43159;51.006;18.224;2022-11-15T10:01:24;29.30;;;17.60;;
57321;SDS011;43159;51.006;18.224;2022-11-15T10:04:15;27.50;;;17.30;;
57321;SDS011;43159;51.006;18.224;2022-11-15T10:06:42;28.40;;;17.60;;
57321;SDS011;43159;51.006;18.224;2022-11-15T10:11:42;34.60;;;21.20;;
57321;SDS011;43159;51.006;18.224;2022-11-15T10:24:44;35.00;;;21.00;;
57321;SDS011;43159;51.006;18.224;2022-11-15T10:27:12;31.40;;;18.40;;
57321;SDS011;43159;51.006;18.224;2022-11-15T10:29:46;24.20;;;14.80;;
57321;SDS011;43159;51.006;18.224;2022-11-15T10:32:14;24.00;;;14.90;;
57321;SDS011;43159;51.006;18.224;2022-11-15T10:34:40;23.70;;;13.50;;
57321;SDS011;43159;51.006;18.224;2022-11-15T10:37:06;24.10;;;14.50;;
57321;SDS011;43159;51.006;18.224;2022-11-15T10:39:31;25.20;;;14.90;;
57321;SDS011;43159;51.006;18.224;2022-11-15T10:42:14;23.20;;;14.60;;
57321;SDS011;43159;51.006;18.224;2022-11-15T10:44:44;22.30;;;14.40;;
57321;SDS011;43159;51.006;18.224;2022-11-15T10:47:20;22.50;;;13.70;;
57321;SDS011;43159;51.006;18.224;2022-11-15T10:50:02;26.70;;;16.00;;
57321;SDS011;43159;51.006;18.224;2022-11-15T10:52:31;26.20;;;15.40;;
57321;SDS011;43159;51.006;18.224;2022-11-15T10:57:36;23.80;;;14.10;;
57321;SDS011;43159;51.006;18.224;2022-11-15T11:00:05;23.50;;;14.70;;
57321;SDS011;43159;51.006;18.224;2022-11-15T11:05:03;23.80;;;14.50;;
57321;SDS011;43159;51.006;18.224;2022-11-15T11:07:32;25.10;;;15.50;;
57321;SDS011;43159;51.006;18.224;2022-11-15T11:12:30;23.60;;;15.20;;
57321;SDS011;43159;51.006;18.224;2022-11-15T11:14:57;23.50;;;15.20;;
57321;SDS011;43159;51.006;18.224;2022-11-15T11:20:25;23.60;;;14.90;;
57321;SDS011;43159;51.006;18.224;2022-11-15T11:23:10;24.90;;;15.20;;
57321;SDS011;43159;51.006;18.224;2022-11-15T11:31:19;23.80;;;14.90;;
57321;SDS011;43159;51.006;18.224;2022-11-15T11:47:15;19.00;;;12.90;;
57321;SDS011;43159;51.006;18.224;2022-11-15T11:49:53;20.00;;;12.30;;
57321;SDS011;43159;51.006;18.224;2022-11-15T11:52:26;20.90;;;12.50;;
57321;SDS011;43159;51.006;18.224;2022-11-15T11:55:01;19.90;;;13.20;;
57321;SDS011;43159;51.006;18.224;2022-11-15T11:57:59;20.00;;;12.30;;
57321;SDS011;43159;51.006;18.224;2022-11-15T12:00:30;20.00;;;12.20;;
57321;SDS011;43159;51.006;18.224;2022-11-15T12:05:28;19.70;;;11.60;;
57321;SDS011;43159;51.006;18.224;2022-11-15T12:07:59;19.40;;;11.90;;
57321;SDS011;43159;51.006;18.224;2022-11-15T12:10:29;19.60;;;12.20;;
57321;SDS011;43159;51.006;18.224;2022-11-15T12:13:04;21.90;;;14.70;;
57321;SDS011;43159;51.006;18.224;2022-11-15T12:15:42;20.40;;;12.30;;
57321;SDS011;43159;51.006;18.224;2022-11-15T12:18:12;19.80;;;11.80;;
57321;SDS011;43159;51.006;18.224;2022-11-15T12:20:41;19.30;;;11.90;;
57321;SDS011;43159;51.006;18.224;2022-11-15T12:23:38;19.90;;;12.00;;
57321;SDS011;43159;51.006;18.224;2022-11-15T12:26:11;19.20;;;11.80;;
57321;SDS011;43159;51.006;18.224;2022-11-15T12:28:44;18.90;;;11.80;;
57321;SDS011;43159;51.006;18.224;2022-11-15T12:31:29;21.30;;;12.50;;
57321;SDS011;43159;51.006;18.224;2022-11-15T12:34:04;21.20;;;12.10;;
57321;SDS011;43159;51.006;18.224;2022-11-15T12:36:39;19.70;;;12.30;;
57321;SDS011;43159;51.006;18.224;2022-11-15T12:39:09;19.00;;;11.40;;
57321;SDS011;43159;51.006;18.224;2022-11-15T12:44:02;20.20;;;12.20;;
57321;SDS011;43159;51.006;18.224;2022-11-15T13:02:27;21.10;;;12.50;;
57321;SDS011;43159;51.006;18.224;2022-11-15T13:05:56;20.90;;;13.60;;
57321;SDS011;43159;51.006;18.224;2022-11-15T13:17:40;20.70;;;13.10;;
57321;SDS011;43159;51.006;18.224;2022-11-15T13:30:52;20.50;;;13.10;;
57321;SDS011;43159;51.006;18.224;2022-11-15T13:35:48;21.00;;;13.10;;
57321;SDS011;43159;51.006;18.224;2022-11-15T13:40:55;20.70;;;13.30;;
57321;SDS011;43159;51.006;18.224;2022-11-15T13:46:06;21.40;;;13.60;;
57321;SDS011;43159;51.006;18.224;2022-11-15T13:48:33;21.80;;;13.30;;
57321;SDS011;43159;51.006;18.224;2022-11-15T13:51:00;22.60;;;13.30;;
57321;SDS011;43159;51.006;18.224;2022-11-15T13:53:27;21.80;;;13.30;;
57321;SDS011;43159;51.006;18.224;2022-11-15T13:55:53;20.80;;;13.00;;
57321;SDS011;43159;51.006;18.224;2022-11-15T13:58:19;20.70;;;13.20;;
57321;SDS011;43159;51.006;18.224;2022-11-15T14:00:45;19.50;;;12.60;;
57321;SDS011;43159;51.006;18.224;2022-11-15T14:05:41;20.70;;;12.60;;
57321;SDS011;43159;51.006;18.224;2022-11-15T14:10:48;22.80;;;12.90;;
57321;SDS011;43159;51.006;18.224;2022-11-15T14:13:29;21.80;;;13.50;;
57321;SDS011;43159;51.006;18.224;2022-11-15T14:16:15;22.40;;;13.50;;
57321;SDS011;43159;51.006;18.224;2022-11-15T14:18:44;22.70;;;13.40;;
57321;SDS011;43159;51.006;18.224;2022-11-15T14:21:15;24.70;;;14.40;;
57321;SDS011;43159;51.006;18.224;2022-11-15T14:23:41;322.90;;;104.80;;
57321;SDS011;43159;51.006;18.224;2022-11-15T14:26:11;209.20;;;68.40;;
57321;SDS011;43159;51.006;18.224;2022-11-15T14:28:52;35.80;;;16.70;;
57321;SDS011;43159;51.006;18.224;2022-11-15T14:31:18;28.50;;;16.20;;
57321;SDS011;43159;51.006;18.224;2022-11-15T14:33:45;27.00;;;16.20;;
57321;SDS011;43159;51.006;18.224;2022-11-15T14:36:12;110.10;;;42.10;;
57321;SDS011;43159;51.006;18.224;2022-11-15T14:38:39;115.30;;;42.30;;
57321;SDS011;43159;51.006;18.224;2022-11-15T14:41:05;78.70;;;30.00;;
57321;SDS011;43159;51.006;18.224;2022-11-15T14:43:31;63.80;;;24.90;;
57321;SDS011;43159;51.006;18.224;2022-11-15T14:45:56;49.60;;;18.80;;
57321;SDS011;43159;51.006;18.224;2022-11-15T14:48:22;37.00;;;16.90;;
57321;SDS011;43159;51.006;18.224;2022-11-15T14:50:48;31.40;;;16.20;;
57321;SDS011;43159;51.006;18.224;2022-11-15T14:53:14;31.90;;;16.60;;
57321;SDS011;43159;51.006;18.224;2022-11-15T14:55:41;30.80;;;16.60;;
57321;SDS011;43159;51.006;18.224;2022-11-15T14:58:07;34.60;;;19.10;;
57321;SDS011;43159;51.006;18.224;2022-11-15T15:00:33;42.00;;;21.70;;
57321;SDS011;43159;51.006;18.224;2022-11-15T15:03:03;39.40;;;20.40;;
57321;SDS011;43159;51.006;18.224;2022-11-15T15:05:36;43.20;;;25.10;;
57321;SDS011;43159;51.006;18.224;2022-11-15T15:08:04;52.80;;;27.80;;
57321;SDS011;43159;51.006;18.224;2022-11-15T15:10:31;42.00;;;24.30;;
57321;SDS011;43159;51.006;18.224;2022-11-15T15:13:02;35.70;;;21.10;;
57321;SDS011;43159;51.006;18.224;2022-11-15T15:15:33;38.10;;;23.50;;
57321;SDS011;43159;51.006;18.224;2022-11-15T15:18:01;44.90;;;22.50;;
57321;SDS011;43159;51.006;18.224;2022-11-15T15:20:27;38.90;;;18.40;;
57321;SDS011;43159;51.006;18.224;2022-11-15T15:22:54;30.70;;;16.60;;
57321;SDS011;43159;51.006;18.224;2022-11-15T15:25:21;29.20;;;17.30;;
57321;SDS011;43159;51.006;18.224;2022-11-15T15:27:49;36.60;;;19.60;;
57321;SDS011;43159;51.006;18.224;2022-11-15T15:30:16;34.60;;;19.70;;
57321;SDS011;43159;51.006;18.224;2022-11-15T15:32:42;41.30;;;21.90;;
57321;SDS011;43159;51.006;18.224;2022-11-15T15:35:10;46.00;;;24.60;;
57321;SDS011;43159;51.006;18.224;2022-11-15T15:37:37;44.90;;;23.30;;
57321;SDS011;43159;51.006;18.224;2022-11-15T15:40:13;43.20;;;24.30;;
57321;SDS011;43159;51.006;18.224;2022-11-15T15:42:59;54.00;;;24.20;;
57321;SDS011;43159;51.006;18.224;2022-11-15T15:45:25;51.10;;;26.50;;
57321;SDS011;43159;51.006;18.224;2022-11-15T15:47:52;47.90;;;27.70;;
57321;SDS011;43159;51.006;18.224;2022-11-15T15:50:23;52.80;;;28.80;;
57321;SDS011;43159;51.006;18.224;2022-11-15T15:52:53;49.40;;;28.60;;
57321;SDS011;43159;51.006;18.224;2022-11-15T15:55:20;69.20;;;38.60;;
57321;SDS011;43159;51.006;18.224;2022-11-15T15:57:47;76.20;;;43.40;;
57321;SDS011;43159;51.006;18.224;2022-11-15T16:00:13;75.70;;;40.30;;
57321;SDS011;43159;51.006;18.224;2022-11-15T16:02:49;76.10;;;42.60;;
57321;SDS011;43159;51.006;18.224;2022-11-15T16:05:15;77.20;;;42.60;;
57321;SDS011;43159;51.006;18.224;2022-11-15T16:07:42;59.50;;;34.50;;
57321;SDS011;43159;51.006;18.224;2022-11-15T16:10:31;63.20;;;36.60;;
57321;SDS011;43159;51.006;18.224;2022-11-15T16:12:55;93.50;;;52.50;;
57321;SDS011;43159;51.006;18.224;2022-11-15T16:15:22;124.90;;;70.10;;
57321;SDS011;43159;51.006;18.224;2022-11-15T16:17:51;101.70;;;61.20;;
57321;SDS011;43159;51.006;18.224;2022-11-15T16:22:49;95.80;;;54.50;;
57321;SDS011;43159;51.006;18.224;2022-11-15T16:25:14;75.30;;;44.40;;
57321;SDS011;43159;51.006;18.224;2022-11-15T16:27:40;68.80;;;39.00;;
57321;SDS011;43159;51.006;18.224;2022-11-15T16:30:17;66.60;;;37.80;;
57321;SDS011;43159;51.006;18.224;2022-11-15T16:32:48;54.40;;;29.90;;
57321;SDS011;43159;51.006;18.224;2022-11-15T16:35:14;57.80;;;31.00;;
57321;SDS011;43159;51.006;18.224;2022-11-15T16:37:41;59.40;;;32.00;;
57321;SDS011;43159;51.006;18.224;2022-11-15T16:42:57;71.90;;;39.20;;
57321;SDS011;43159;51.006;18.224;2022-11-15T16:45:24;87.00;;;45.10;;
57321;SDS011;43159;51.006;18.224;2022-11-15T16:47:50;90.50;;;48.10;;
57321;SDS011;43159;51.006;18.224;2022-11-15T16:50:19;70.40;;;38.50;;
57321;SDS011;43159;51.006;18.224;2022-11-15T16:52:54;82.90;;;41.50;;
57321;SDS011;43159;51.006;18.224;2022-11-15T16:55:21;73.60;;;39.00;;
57321;SDS011;43159;51.006;18.224;2022-11-15T16:57:49;77.30;;;39.90;;
57321;SDS011;43159;51.006;18.224;2022-11-15T17:00:16;77.60;;;42.20;;
57321;SDS011;43159;51.006;18.224;2022-11-15T17:02:47;91.10;;;48.60;;
57321;SDS011;43159;51.006;18.224;2022-11-15T17:05:18;121.00;;;59.30;;
57321;SDS011;43159;51.006;18.224;2022-11-15T17:07:47;162.60;;;73.60;;
57321;SDS011;43159;51.006;18.224;2022-11-15T17:10:14;139.50;;;69.00;;
57321;SDS011;43159;51.006;18.224;2022-11-15T17:12:42;143.30;;;70.90;;
57321;SDS011;43159;51.006;18.224;2022-11-15T17:15:08;197.40;;;86.20;;
57321;SDS011;43159;51.006;18.224;2022-11-15T17:17:36;146.90;;;69.30;;
57321;SDS011;43159;51.006;18.224;2022-11-15T17:20:02;186.10;;;83.60;;
57321;SDS011;43159;51.006;18.224;2022-11-15T17:22:29;195.10;;;84.30;;
57321;SDS011;43159;51.006;18.224;2022-11-15T17:24:55;178.80;;;77.00;;
57321;SDS011;43159;51.006;18.224;2022-11-15T17:27:21;168.70;;;73.80;;
57321;SDS011;43159;51.006;18.224;2022-11-15T17:29:48;164.90;;;71.70;;
57321;SDS011;43159;51.006;18.224;2022-11-15T17:32:13;156.60;;;71.20;;
57321;SDS011;43159;51.006;18.224;2022-11-15T17:34:39;123.20;;;60.20;;
57321;SDS011;43159;51.006;18.224;2022-11-15T17:37:04;129.30;;;59.30;;
57321;SDS011;43159;51.006;18.224;2022-11-15T17:39:30;128.30;;;58.00;;
57321;SDS011;43159;51.006;18.224;2022-11-15T17:41:55;113.40;;;55.80;;
57321;SDS011;43159;51.006;18.224;2022-11-15T17:44:21;118.10;;;58.40;;
57321;SDS011;43159;51.006;18.224;2022-11-15T17:46:47;120.40;;;60.70;;
57321;SDS011;43159;51.006;18.224;2022-11-15T17:49:12;276.70;;;100.90;;
57321;SDS011;43159;51.006;18.224;2022-11-15T17:51:38;176.10;;;74.60;;
57321;SDS011;43159;51.006;18.224;2022-11-15T17:54:03;128.00;;;61.30;;
57321;SDS011;43159;51.006;18.224;2022-11-15T17:56:29;116.60;;;60.10;;
57321;SDS011;43159;51.006;18.224;2022-11-15T17:58:56;124.00;;;62.60;;
57321;SDS011;43159;51.006;18.224;2022-11-15T18:01:24;127.00;;;72.10;;
57321;SDS011;43159;51.006;18.224;2022-11-15T18:03:51;142.20;;;73.70;;
57321;SDS011;43159;51.006;18.224;2022-11-15T18:06:17;139.30;;;73.00;;
57321;SDS011;43159;51.006;18.224;2022-11-15T18:08:44;133.20;;;70.90;;
57321;SDS011;43159;51.006;18.224;2022-11-15T18:11:12;141.20;;;73.50;;
57321;SDS011;43159;51.006;18.224;2022-11-15T18:13:39;163.30;;;80.60;;
57321;SDS011;43159;51.006;18.224;2022-11-15T18:16:10;210.80;;;100.00;;
57321;SDS011;43159;51.006;18.224;2022-11-15T18:18:37;243.20;;;108.70;;
57321;SDS011;43159;51.006;18.224;2022-11-15T18:21:04;185.10;;;87.60;;
57321;SDS011;43159;51.006;18.224;2022-11-15T18:23:31;164.70;;;81.50;;
57321;SDS011;43159;51.006;18.224;2022-11-15T18:25:57;145.60;;;76.10;;
57321;SDS011;43159;51.006;18.224;2022-11-15T18:28:33;170.70;;;87.20;;
57321;SDS011;43159;51.006;18.224;2022-11-15T18:31:01;195.70;;;92.40;;
57321;SDS011;43159;51.006;18.224;2022-11-15T18:33:28;203.60;;;103.70;;
57321;SDS011;43159;51.006;18.224;2022-11-15T18:35:58;172.70;;;92.90;;
57321;SDS011;43159;51.006;18.224;2022-11-15T18:38:25;128.80;;;71.90;;
57321;SDS011;43159;51.006;18.224;2022-11-15T18:41:04;108.30;;;57.70;;
57321;SDS011;43159;51.006;18.224;2022-11-15T18:43:31;123.60;;;59.00;;
57321;SDS011;43159;51.006;18.224;2022-11-15T18:46:03;89.60;;;46.60;;
57321;SDS011;43159;51.006;18.224;2022-11-15T18:48:30;91.90;;;47.70;;
57321;SDS011;43159;51.006;18.224;2022-11-15T18:51:01;92.10;;;48.80;;
57321;SDS011;43159;51.006;18.224;2022-11-15T18:53:27;106.80;;;54.80;;
57321;SDS011;43159;51.006;18.224;2022-11-15T18:55:53;103.00;;;53.50;;
57321;SDS011;43159;51.006;18.224;2022-11-15T18:58:18;100.20;;;49.80;;
57321;SDS011;43159;51.006;18.224;2022-11-15T19:00:44;94.40;;;49.70;;
57321;SDS011;43159;51.006;18.224;2022-11-15T19:03:09;91.20;;;47.80;;
57321;SDS011;43159;51.006;18.224;2022-11-15T19:05:35;86.60;;;45.60;;
57321;SDS011;43159;51.006;18.224;2022-11-15T19:08:01;92.40;;;45.00;;
57321;SDS011;43159;51.006;18.224;2022-11-15T19:10:26;83.40;;;43.70;;
57321;SDS011;43159;51.006;18.224;2022-11-15T19:12:53;82.20;;;43.60;;
57321;SDS011;43159;51.006;18.224;2022-11-15T19:15:19;88.90;;;46.50;;
57321;SDS011;43159;51.006;18.224;2022-11-15T19:17:44;86.00;;;43.90;;
57321;SDS011;43159;51.006;18.224;2022-11-15T19:20:10;85.10;;;44.00;;
57321;SDS011;43159;51.006;18.224;2022-11-15T19:22:36;86.40;;;44.60;;
57321;SDS011;43159;51.006;18.224;2022-11-15T19:25:01;85.10;;;45.10;;
57321;SDS011;43159;51.006;18.224;2022-11-15T19:27:29;86.50;;;45.00;;
57321;SDS011;43159;51.006;18.224;2022-11-15T19:29:54;87.60;;;45.40;;
57321;SDS011;43159;51.006;18.224;2022-11-15T19:32:20;87.00;;;47.10;;
57321;SDS011;43159;51.006;18.224;2022-11-15T19:34:46;92.90;;;51.50;;
57321;SDS011;43159;51.006;18.224;2022-11-15T19:37:11;95.70;;;51.10;;
57321;SDS011;43159;51.006;18.224;2022-11-15T19:39:37;98.80;;;52.20;;
57321;SDS011;43159;51.006;18.224;2022-11-15T19:42:02;80.90;;;45.00;;
57321;SDS011;43159;51.006;18.224;2022-11-15T19:44:28;101.40;;;54.70;;
57321;SDS011;43159;51.006;18.224;2022-11-15T19:46:53;94.00;;;51.60;;
57321;SDS011;43159;51.006;18.224;2022-11-15T19:49:19;94.90;;;50.10;;
57321;SDS011;43159;51.006;18.224;2022-11-15T19:51:46;68.80;;;40.50;;
57321;SDS011;43159;51.006;18.224;2022-11-15T19:54:12;65.60;;;39.40;;
57321;SDS011;43159;51.006;18.224;2022-11-15T19:56:40;62.20;;;38.80;;
57321;SDS011;43159;51.006;18.224;2022-11-15T19:59:06;63.20;;;38.50;;
57321;SDS011;43159;51.006;18.224;2022-11-15T20:01:32;64.00;;;37.50;;
57321;SDS011;43159;51.006;18.224;2022-11-15T20:04:03;65.40;;;39.50;;
57321;SDS011;43159;51.006;18.224;2022-11-15T20:06:32;65.00;;;39.00;;
57321;SDS011;43159;51.006;18.224;2022-11-15T20:09:00;67.20;;;41.40;;
57321;SDS011;43159;51.006;18.224;2022-11-15T20:11:26;64.80;;;39.00;;
57321;SDS011;43159;51.006;18.224;2022-11-15T20:13:55;64.80;;;38.20;;
57321;SDS011;43159;51.006;18.224;2022-11-15T20:16:21;68.60;;;39.50;;
57321;SDS011;43159;51.006;18.224;2022-11-15T20:18:47;64.10;;;38.30;;
57321;SDS011;43159;51.006;18.224;2022-11-15T20:21:14;67.60;;;39.60;;
57321;SDS011;43159;51.006;18.224;2022-11-15T20:23:40;65.80;;;39.60;;
57321;SDS011;43159;51.006;18.224;2022-11-15T20:26:06;65.70;;;39.00;;
57321;SDS011;43159;51.006;18.224;2022-11-15T20:28:32;75.30;;;41.80;;
57321;SDS011;43159;51.006;18.224;2022-11-15T20:30:58;67.80;;;40.00;;
57321;SDS011;43159;51.006;18.224;2022-11-15T20:33:24;63.30;;;35.80;;
57321;SDS011;43159;51.006;18.224;2022-11-15T20:35:51;63.90;;;35.70;;
57321;SDS011;43159;51.006;18.224;2022-11-15T20:38:17;63.00;;;36.40;;
57321;SDS011;43159;51.006;18.224;2022-11-15T20:40:44;61.60;;;34.80;;
57321;SDS011;43159;51.006;18.224;2022-11-15T20:43:12;59.60;;;34.60;;
57321;SDS011;43159;51.006;18.224;2022-11-15T20:45:39;60.60;;;34.30;;
57321;SDS011;43159;51.006;18.224;2022-11-15T20:48:08;59.10;;;34.50;;
57321;SDS011;43159;51.006;18.224;2022-11-15T20:50:33;64.00;;;34.20;;
57321;SDS011;43159;51.006;18.224;2022-11-15T20:52:59;62.60;;;36.20;;
57321;SDS011;43159;51.006;18.224;2022-11-15T20:55:24;78.70;;;41.90;;
57321;SDS011;43159;51.006;18.224;2022-11-15T20:57:50;87.50;;;44.70;;
57321;SDS011;43159;51.006;18.224;2022-11-15T21:00:21;95.80;;;49.20;;
57321;SDS011;43159;51.006;18.224;2022-11-15T21:02:50;113.20;;;58.90;;
57321;SDS011;43159;51.006;18.224;2022-11-15T21:05:16;96.20;;;53.10;;
57321;SDS011;43159;51.006;18.224;2022-11-15T21:07:41;91.40;;;51.90;;
57321;SDS011;43159;51.006;18.224;2022-11-15T21:10:07;101.00;;;62.10;;
57321;SDS011;43159;51.006;18.224;2022-11-15T21:12:55;87.70;;;51.40;;
57321;SDS011;43159;51.006;18.224;2022-11-15T21:15:20;82.80;;;46.90;;
57321;SDS011;43159;51.006;18.224;2022-11-15T21:17:46;86.10;;;49.50;;
57321;SDS011;43159;51.006;18.224;2022-11-15T21:20:11;88.20;;;50.10;;
57321;SDS011;43159;51.006;18.224;2022-11-15T21:22:37;85.70;;;50.40;;
57321;SDS011;43159;51.006;18.224;2022-11-15T21:25:03;90.90;;;51.40;;
57321;SDS011;43159;51.006;18.224;2022-11-15T21:27:30;89.50;;;50.20;;
57321;SDS011;43159;51.006;18.224;2022-11-15T21:29:55;107.90;;;57.70;;
57321;SDS011;43159;51.006;18.224;2022-11-15T21:32:21;97.00;;;53.80;;
57321;SDS011;43159;51.006;18.224;2022-11-15T21:34:47;95.20;;;54.40;;
57321;SDS011;43159;51.006;18.224;2022-11-15T21:37:12;88.70;;;48.40;;
57321;SDS011;43159;51.006;18.224;2022-11-15T21:39:38;79.40;;;47.10;;
57321;SDS011;43159;51.006;18.224;2022-11-15T21:42:04;84.00;;;47.40;;
57321;SDS011;43159;51.006;18.224;2022-11-15T21:44:29;81.80;;;46.20;;
57321;SDS011;43159;51.006;18.224;2022-11-15T21:46:56;82.60;;;47.50;;
57321;SDS011;43159;51.006;18.224;2022-11-15T21:49:21;93.40;;;50.70;;
57321;SDS011;43159;51.006;18.224;2022-11-15T21:51:47;89.90;;;49.80;;
57321;SDS011;43159;51.006;18.224;2022-11-15T21:54:13;88.30;;;49.10;;
57321;SDS011;43159;51.006;18.224;2022-11-15T21:56:39;86.50;;;48.90;;
57321;SDS011;43159;51.006;18.224;2022-11-15T21:59:06;85.40;;;48.00;;
57321;SDS011;43159;51.006;18.224;2022-11-15T22:01:31;86.60;;;49.10;;
57321;SDS011;43159;51.006;18.224;2022-11-15T22:04:15;91.30;;;49.70;;
57321;SDS011;43159;51.006;18.224;2022-11-15T22:06:41;87.30;;;48.80;;
57321;SDS011;43159;51.006;18.224;2022-11-15T22:09:06;86.30;;;49.40;;
57321;SDS011;43159;51.006;18.224;2022-11-15T22:11:32;89.90;;;49.30;;
57321;SDS011;43159;51.006;18.224;2022-11-15T22:13:58;87.20;;;47.80;;
57321;SDS011;43159;51.006;18.224;2022-11-15T22:16:24;90.50;;;51.00;;
57321;SDS011;43159;51.006;18.224;2022-11-15T22:18:50;92.90;;;49.80;;
57321;SDS011;43159;51.006;18.224;2022-11-15T22:21:17;86.90;;;47.10;;
57321;SDS011;43159;51.006;18.224;2022-11-15T22:23:43;87.10;;;49.00;;
57321;SDS011;43159;51.006;18.224;2022-11-15T22:26:13;91.90;;;50.40;;
57321;SDS011;43159;51.006;18.224;2022-11-15T22:28:40;96.70;;;52.00;;
57321;SDS011;43159;51.006;18.224;2022-11-15T22:31:06;94.00;;;51.10;;
57321;SDS011;43159;51.006;18.224;2022-11-15T22:33:32;83.90;;;48.20;;